Time;durP1;ratioP1;P1;durP2;ratioP2;P2;SDS_P1;SDS_P2;PMS_P1;PMS_P2;Temp;Humidity;BMP_temperature;BMP_pressure;BME280_temperature;BME280_humidity;BME280_pressure;Samples;Min_cycle;Max_cycle;Signal;HPM_P1;HPM_P2
2024/01/12 00:00:29;;;;;;;23.27;10.63;;;0.80;85.50;;;;;;5031925;28;20044;-73
2024/01/12 00:02:54;;;;;;;21.97;10.17;;;0.80;85.50;;;;;;5029586;28;20639;-72
2024/01/12 00:05:20;;;;;;;32.20;10.37;;;0.80;85.60;;;;;;5034822;28;20107;-72
2024/01/12 00:07:46;;;;;;;24.13;9.40;;;0.80;85.60;;;;;;5031703;28;20419;-73
2024/01/12 00:10:11;;;;;;;25.90;9.30;;;0.90;85.60;;;;;;5011356;28;20077;-73
2024/01/12 00:12:37;;;;;;;19.83;8.87;;;1.00;85.70;;;;;;5028336;28;20058;-73
2024/01/12 00:15:05;;;;;;;23.07;10.03;;;1.00;85.70;;;;;;5017485;28;20049;-73
2024/01/12 00:17:30;;;;;;;35.57;10.13;;;1.00;85.70;;;;;;5042022;28;20057;-73
2024/01/12 00:19:56;;;;;;;27.67;8.53;;;1.00;85.70;;;;;;5044384;28;20514;-73
2024/01/12 00:22:22;;;;;;;23.60;8.30;;;1.00;85.70;;;;;;5065258;28;20121;-73
2024/01/12 00:24:48;;;;;;;24.97;8.03;;;1.00;85.70;;;;;;5049745;28;20072;-73
2024/01/12 00:27:14;;;;;;;25.70;8.50;;;1.10;85.80;;;;;;5054025;28;20044;-73
2024/01/12 00:29:40;;;;;;;21.17;8.33;;;1.10;85.70;;;;;;5059876;28;20393;-73
2024/01/12 00:32:06;;;;;;;20.53;8.67;;;1.10;85.70;;;;;;5026732;28;20140;-73
2024/01/12 00:34:32;;;;;;;23.27;7.17;;;1.10;85.70;;;;;;5028827;28;20065;-73
2024/01/12 00:36:57;;;;;;;19.67;7.70;;;1.10;85.70;;;;;;5019793;28;20601;-73
2024/01/12 00:39:23;;;;;;;24.57;7.73;;;1.10;85.60;;;;;;5012368;28;20053;-73
2024/01/12 00:41:50;;;;;;;23.73;7.13;;;1.00;85.70;;;;;;5025188;28;20056;-74
2024/01/12 00:44:21;;;;;;;18.47;6.63;;;1.00;85.70;;;;;;5023651;28;20055;-73
2024/01/12 00:46:50;;;;;;;28.02;7.65;;;1.10;85.70;;;;;;5017195;28;20124;-73
2024/01/12 00:49:20;;;;;;;23.50;6.43;;;1.10;85.70;;;;;;5044815;28;20499;-72
2024/01/12 00:51:46;;;;;;;17.53;6.47;;;1.10;85.70;;;;;;5030877;28;20373;-73
2024/01/12 00:54:13;;;;;;;22.07;6.10;;;1.10;85.70;;;;;;5044542;28;20053;-73
2024/01/12 00:56:38;;;;;;;18.67;7.07;;;1.00;85.60;;;;;;5025018;28;20052;-73
2024/01/12 00:59:08;;;;;;;13.23;5.30;;;1.00;85.70;;;;;;5045344;28;20531;-73
2024/01/12 01:01:34;;;;;;;21.07;6.07;;;1.00;85.70;;;;;;5055490;28;20522;-73
2024/01/12 01:04:00;;;;;;;19.07;5.63;;;1.00;85.60;;;;;;5044072;28;20516;-73
2024/01/12 01:06:27;;;;;;;21.63;6.10;;;1.00;85.50;;;;;;5059349;28;20411;-73
2024/01/12 01:08:53;;;;;;;19.77;6.43;;;0.90;85.50;;;;;;5058690;28;20057;-73
2024/01/12 01:11:18;;;;;;;21.33;5.80;;;0.80;85.50;;;;;;5041016;28;20044;-73
2024/01/12 01:13:44;;;;;;;14.87;5.50;;;0.80;85.50;;;;;;5065501;28;20113;-74
2024/01/12 01:16:10;;;;;;;21.10;5.90;;;0.80;85.40;;;;;;5044411;28;20052;-74
2024/01/12 01:18:36;;;;;;;14.07;5.63;;;0.70;85.40;;;;;;5044134;28;20092;-73
2024/01/12 01:21:01;;;;;;;22.77;5.60;;;0.60;85.40;;;;;;5032164;28;20056;-74
2024/01/12 01:23:27;;;;;;;20.63;6.50;;;0.60;85.40;;;;;;5062913;28;20155;-73
2024/01/12 01:25:56;;;;;;;20.30;6.00;;;0.50;85.30;;;;;;5044461;28;20456;-73
2024/01/12 01:28:21;;;;;;;23.20;6.97;;;0.50;85.40;;;;;;5045440;28;20048;-73
2024/01/12 01:30:47;;;;;;;21.47;7.60;;;0.50;85.30;;;;;;5043614;28;20056;-73
2024/01/12 01:33:13;;;;;;;19.70;6.77;;;0.40;85.30;;;;;;5044772;28;20045;-72
2024/01/12 01:35:39;;;;;;;18.67;6.30;;;0.40;85.40;;;;;;5044660;28;20495;-73
2024/01/12 01:38:05;;;;;;;21.27;7.00;;;0.40;85.40;;;;;;5027378;28;20098;-73
2024/01/12 01:40:30;;;;;;;19.30;6.07;;;0.40;85.50;;;;;;5042766;28;20044;-73
2024/01/12 01:42:56;;;;;;;18.53;6.10;;;0.40;85.40;;;;;;5054486;28;20148;-73
2024/01/12 01:45:22;;;;;;;23.70;6.33;;;0.30;85.40;;;;;;5051628;28;20059;-73
2024/01/12 01:47:47;;;;;;;19.67;5.83;;;0.30;85.30;;;;;;5060022;28;20045;-72
2024/01/12 01:50:15;;;;;;;11.47;5.30;;;0.30;85.40;;;;;;5043278;28;20136;-72
2024/01/12 01:52:43;;;;;;;20.97;5.87;;;0.30;85.30;;;;;;5062258;28;20052;-73
2024/01/12 01:55:11;;;;;;;19.03;6.47;;;0.20;85.30;;;;;;5060127;28;20131;-72
2024/01/12 01:57:39;;;;;;;17.37;5.90;;;0.20;85.30;;;;;;5050907;28;20515;-74
2024/01/12 02:00:05;;;;;;;16.63;6.03;;;0.20;85.40;;;;;;5046345;28;20055;-73
2024/01/12 02:02:31;;;;;;;18.87;6.50;;;0.30;85.40;;;;;;5015395;28;20038;-73
2024/01/12 02:05:00;;;;;;;18.43;5.80;;;0.30;85.50;;;;;;5006893;28;20041;-72
2024/01/12 02:07:26;;;;;;;17.27;6.00;;;0.30;85.40;;;;;;5035686;28;20041;-72
2024/01/12 02:09:52;;;;;;;19.63;5.97;;;0.20;85.40;;;;;;5030984;28;20052;-72
2024/01/12 02:12:17;;;;;;;18.30;5.87;;;0.20;85.40;;;;;;5030347;28;20531;-73
2024/01/12 02:14:43;;;;;;;19.83;5.77;;;0.20;85.50;;;;;;5007548;28;20046;-72
2024/01/12 02:17:09;;;;;;;23.10;5.60;;;0.30;85.40;;;;;;5005689;28;20045;-72
2024/01/12 02:19:35;;;;;;;19.50;5.97;;;0.30;85.60;;;;;;5023553;28;20056;-74
2024/01/12 02:22:00;;;;;;;20.50;6.57;;;0.30;85.60;;;;;;5007145;28;20067;-73
2024/01/12 02:24:26;;;;;;;22.47;6.53;;;0.30;85.70;;;;;;5029064;28;20112;-73
2024/01/12 02:26:52;;;;;;;16.10;6.33;;;0.30;85.60;;;;;;5024782;28;20687;-72
2024/01/12 02:29:18;;;;;;;18.37;6.43;;;0.30;85.60;;;;;;5030893;28;20453;-72
2024/01/12 02:31:44;;;;;;;16.43;5.87;;;0.30;85.60;;;;;;5027380;28;20488;-73
2024/01/12 02:34:10;;;;;;;24.83;6.63;;;0.20;85.60;;;;;;5028283;28;20046;-72
2024/01/12 02:36:36;;;;;;;16.40;5.97;;;0.20;85.60;;;;;;5024807;28;20427;-72
2024/01/12 02:39:02;;;;;;;18.87;5.93;;;0.10;85.70;;;;;;5029941;28;20497;-72
2024/01/12 02:41:27;;;;;;;20.40;6.67;;;0.10;85.60;;;;;;5029461;28;20067;-72
2024/01/12 02:43:53;;;;;;;19.87;5.57;;;0.00;85.50;;;;;;5012384;28;20075;-72
2024/01/12 02:46:19;;;;;;;16.77;5.87;;;0.00;85.50;;;;;;5024520;28;20148;-72
2024/01/12 02:48:44;;;;;;;24.07;5.83;;;0.00;85.50;;;;;;5024653;28;20057;-73
2024/01/12 02:51:10;;;;;;;23.03;6.83;;;0.00;85.70;;;;;;5028864;28;20037;-73
2024/01/12 02:53:36;;;;;;;19.03;6.03;;;0.00;85.70;;;;;;5025672;28;20077;-73
2024/01/12 02:56:01;;;;;;;22.93;6.77;;;0.10;85.80;;;;;;5008040;28;20052;-72
2024/01/12 02:58:27;;;;;;;22.00;6.13;;;0.20;85.80;;;;;;5025014;28;20088;-72
2024/01/12 03:00:53;;;;;;;26.40;6.80;;;0.20;85.80;;;;;;5030058;28;20099;-72
2024/01/12 03:03:19;;;;;;;41.30;7.20;;;0.30;85.90;;;;;;5025456;28;20053;-73
2024/01/12 03:05:45;;;;;;;29.63;7.20;;;0.40;86.00;;;;;;5031422;28;20080;-74
2024/01/12 03:08:11;;;;;;;33.60;7.70;;;0.50;86.00;;;;;;5024692;28;20501;-73
2024/01/12 03:10:37;;;;;;;23.40;6.23;;;0.50;86.10;;;;;;5006114;28;20046;-72
2024/01/12 03:13:03;;;;;;;30.57;7.93;;;0.50;86.00;;;;;;5025468;28;20056;-72
2024/01/12 03:15:29;;;;;;;32.33;7.97;;;0.50;86.00;;;;;;5024280;28;20045;-73
2024/01/12 03:17:56;;;;;;;35.63;8.63;;;0.50;86.00;;;;;;5029398;28;20072;-74
2024/01/12 03:20:22;;;;;;;36.63;8.87;;;0.60;86.00;;;;;;5025195;28;20052;-73
2024/01/12 03:22:48;;;;;;;32.13;8.23;;;0.60;86.10;;;;;;5010542;28;20042;-73
2024/01/12 03:25:13;;;;;;;34.97;8.03;;;0.60;86.10;;;;;;5030108;28;20054;-73
2024/01/12 03:27:39;;;;;;;29.30;7.47;;;0.60;86.20;;;;;;5014211;28;20060;-73
2024/01/12 03:30:05;;;;;;;27.70;8.50;;;0.60;86.10;;;;;;5018796;28;20064;-73
2024/01/12 03:32:33;;;;;;;24.10;8.40;;;0.70;86.10;;;;;;5012258;28;20644;-73
2024/01/12 03:34:59;;;;;;;32.57;8.10;;;0.60;86.10;;;;;;5017280;28;20124;-73
2024/01/12 03:37:25;;;;;;;33.13;8.80;;;0.60;86.10;;;;;;5019601;28;20132;-73
2024/01/12 03:39:51;;;;;;;36.57;8.33;;;0.70;86.10;;;;;;5033574;28;20140;-73
2024/01/12 03:42:17;;;;;;;25.37;8.67;;;0.70;86.10;;;;;;5019616;28;20048;-73
2024/01/12 03:44:42;;;;;;;30.63;8.73;;;0.70;86.20;;;;;;5040705;28;20041;-73
2024/01/12 03:47:08;;;;;;;29.77;8.00;;;0.70;86.10;;;;;;5023174;28;20047;-73
2024/01/12 03:49:34;;;;;;;23.17;7.57;;;0.70;86.20;;;;;;5022799;28;20056;-72
2024/01/12 03:52:00;;;;;;;19.17;7.40;;;0.70;86.10;;;;;;5030197;28;20111;-73
2024/01/12 03:54:25;;;;;;;22.57;6.83;;;0.70;86.10;;;;;;5029132;28;20053;-72
2024/01/12 03:56:51;;;;;;;22.13;6.70;;;0.60;86.10;;;;;;5033702;28;20077;-73
2024/01/12 03:59:19;;;;;;;22.40;7.67;;;0.60;86.10;;;;;;5014397;28;20118;-73
2024/01/12 04:01:47;;;;;;;17.07;7.43;;;0.60;86.10;;;;;;5022695;28;20050;-74
2024/01/12 04:04:13;;;;;;;20.17;7.03;;;0.60;86.10;;;;;;5033302;28;20059;-73
2024/01/12 04:06:40;;;;;;;25.87;6.90;;;0.60;86.00;;;;;;5027327;28;20611;-73
2024/01/12 04:09:06;;;;;;;27.70;8.23;;;0.60;86.10;;;;;;5012172;28;20481;-73
2024/01/12 04:11:32;;;;;;;18.10;7.07;;;0.70;86.10;;;;;;5024632;28;20049;-73
2024/01/12 04:13:58;;;;;;;31.87;8.00;;;0.70;86.20;;;;;;5030029;28;20045;-75
2024/01/12 04:16:23;;;;;;;31.20;8.30;;;0.70;86.20;;;;;;5033811;28;20061;-72
2024/01/12 04:18:49;;;;;;;31.47;8.57;;;0.80;86.30;;;;;;5011546;28;20151;-74
2024/01/12 04:21:15;;;;;;;32.77;8.70;;;0.80;86.30;;;;;;5028490;28;20041;-73
2024/01/12 04:23:40;;;;;;;27.53;8.33;;;0.80;86.30;;;;;;5016816;28;20049;-73
2024/01/12 04:26:06;;;;;;;28.03;8.60;;;0.80;86.40;;;;;;5030425;28;20049;-73
2024/01/12 04:28:32;;;;;;;22.33;7.93;;;0.80;86.30;;;;;;5030356;28;20056;-73
2024/01/12 04:31:00;;;;;;;34.27;7.90;;;0.80;86.30;;;;;;5014090;28;20053;-73
2024/01/12 04:33:26;;;;;;;25.20;7.27;;;0.80;86.30;;;;;;5015433;28;20192;-73
2024/01/12 04:35:51;;;;;;;20.10;6.57;;;0.80;86.30;;;;;;5029678;28;20132;-73
2024/01/12 04:38:17;;;;;;;19.73;6.90;;;0.80;86.20;;;;;;5013317;28;20061;-73
2024/01/12 04:40:43;;;;;;;17.80;7.27;;;0.80;86.30;;;;;;5013895;28;20125;-72
2024/01/12 04:43:08;;;;;;;23.93;8.20;;;0.80;86.30;;;;;;5039385;28;20139;-73
2024/01/12 04:45:34;;;;;;;25.73;7.93;;;0.80;86.30;;;;;;5026739;28;20053;-73
2024/01/12 04:48:00;;;;;;;24.57;8.10;;;0.80;86.30;;;;;;5031018;28;20049;-73
2024/01/12 04:50:25;;;;;;;27.13;7.43;;;0.80;86.30;;;;;;5019957;28;20052;-73
2024/01/12 04:52:52;;;;;;;27.17;7.97;;;0.80;86.40;;;;;;5028994;28;20064;-73
2024/01/12 04:55:18;;;;;;;22.60;7.67;;;0.90;86.50;;;;;;5012780;28;20064;-73
2024/01/12 04:57:44;;;;;;;29.23;8.47;;;0.90;86.50;;;;;;5010056;28;20424;-73
2024/01/12 05:00:10;;;;;;;23.60;8.03;;;0.90;86.50;;;;;;5033652;28;20393;-73
2024/01/12 05:02:36;;;;;;;24.77;7.70;;;0.90;86.50;;;;;;5028885;28;20064;-72
2024/01/12 05:05:04;;;;;;;31.20;8.80;;;0.90;86.50;;;;;;5029763;28;20444;-74
2024/01/12 05:07:30;;;;;;;26.33;7.73;;;0.90;86.50;;;;;;5039637;28;20049;-73
2024/01/12 05:09:56;;;;;;;29.70;9.23;;;0.90;86.50;;;;;;5045892;28;20091;-73
2024/01/12 05:12:22;;;;;;;36.10;9.47;;;1.00;86.50;;;;;;5044624;28;20036;-73
2024/01/12 05:14:48;;;;;;;31.47;9.30;;;1.00;86.50;;;;;;5029571;28;20122;-73
2024/01/12 05:17:14;;;;;;;35.63;9.77;;;1.00;86.50;;;;;;5044634;28;20053;-73
2024/01/12 05:19:39;;;;;;;28.00;8.27;;;1.00;86.50;;;;;;5043470;28;20094;-73
2024/01/12 05:22:07;;;;;;;31.20;9.80;;;1.00;86.60;;;;;;5062323;28;20056;-73
2024/01/12 05:24:33;;;;;;;28.97;10.53;;;1.00;86.60;;;;;;5028311;28;20400;-74
2024/01/12 05:26:59;;;;;;;33.17;10.70;;;1.10;86.70;;;;;;5051398;28;20190;-72
2024/01/12 05:29:25;;;;;;;32.90;9.90;;;1.10;86.80;;;;;;5032649;28;20531;-74
2024/01/12 05:31:51;;;;;;;26.53;10.60;;;1.10;86.70;;;;;;5056263;28;20136;-73
2024/01/12 05:34:16;;;;;;;30.93;10.07;;;1.10;86.60;;;;;;5025785;28;20056;-73
2024/01/12 05:36:42;;;;;;;26.93;10.73;;;1.10;86.70;;;;;;5062124;28;20067;-73
2024/01/12 05:39:08;;;;;;;27.83;10.63;;;1.20;86.70;;;;;;5061613;28;20044;-73
2024/01/12 05:41:34;;;;;;;28.87;10.73;;;1.20;86.80;;;;;;5051831;28;20632;-72
2024/01/12 05:44:00;;;;;;;35.00;11.80;;;1.20;86.70;;;;;;5049608;28;20148;-73
2024/01/12 05:46:26;;;;;;;30.97;11.20;;;1.20;86.70;;;;;;5047430;28;20080;-73
2024/01/12 05:48:51;;;;;;;28.93;11.23;;;1.20;86.70;;;;;;5063820;28;20771;-73
2024/01/12 05:51:17;;;;;;;35.10;10.77;;;1.30;86.70;;;;;;5046741;28;20053;-73
2024/01/12 05:53:43;;;;;;;30.70;11.77;;;1.30;86.70;;;;;;5045675;28;20055;-73
2024/01/12 05:56:08;;;;;;;32.83;11.00;;;1.40;86.80;;;;;;5027668;28;20049;-73
2024/01/12 05:58:34;;;;;;;38.10;11.83;;;1.40;86.80;;;;;;5023702;28;20104;-72
2024/01/12 06:01:00;;;;;;;38.37;12.03;;;1.40;86.70;;;;;;5050412;28;20052;-73
2024/01/12 06:03:28;;;;;;;34.97;12.07;;;1.40;86.70;;;;;;5043634;28;20057;-75
2024/01/12 06:05:54;;;;;;;36.10;13.50;;;1.40;86.70;;;;;;5052336;28;20166;-72
2024/01/12 06:08:20;;;;;;;35.27;11.80;;;1.40;86.80;;;;;;5052737;28;20080;-74
2024/01/12 06:10:46;;;;;;;41.13;12.67;;;1.40;86.80;;;;;;5042098;28;20139;-73
2024/01/12 06:13:12;;;;;;;41.10;12.37;;;1.40;86.80;;;;;;5042890;28;20041;-73
2024/01/12 06:15:37;;;;;;;47.07;12.67;;;1.40;86.80;;;;;;5040768;28;20060;-73
2024/01/12 06:18:04;;;;;;;36.27;12.43;;;1.40;86.80;;;;;;5014589;28;20049;-73
2024/01/12 06:20:29;;;;;;;37.63;11.30;;;1.40;86.60;;;;;;5024724;28;20078;-74
2024/01/12 06:22:55;;;;;;;36.40;12.20;;;1.40;86.70;;;;;;5036363;28;20057;-73
2024/01/12 06:25:21;;;;;;;39.80;12.30;;;1.40;86.70;;;;;;5023616;28;20049;-73
2024/01/12 06:27:47;;;;;;;35.90;11.30;;;1.40;86.50;;;;;;5035037;28;20578;-73
2024/01/12 06:30:13;;;;;;;37.33;11.33;;;1.40;86.60;;;;;;5033582;28;20042;-73
2024/01/12 06:32:39;;;;;;;35.27;11.90;;;1.40;86.60;;;;;;5031000;28;20634;-73
2024/01/12 06:35:08;;;;;;;44.27;13.23;;;1.40;86.70;;;;;;5038150;28;20053;-73
2024/01/12 06:37:34;;;;;;;51.20;12.20;;;1.40;86.60;;;;;;5022360;28;20111;-73
2024/01/12 06:40:00;;;;;;;36.40;9.97;;;1.40;86.60;;;;;;5027302;28;20057;-73
2024/01/12 06:42:27;;;;;;;34.00;10.37;;;1.40;86.60;;;;;;5018801;28;20048;-73
2024/01/12 06:44:53;;;;;;;37.90;9.57;;;1.40;86.50;;;;;;5010715;28;20449;-73
2024/01/12 06:47:18;;;;;;;39.50;8.63;;;1.40;86.50;;;;;;5033229;28;20042;-73
2024/01/12 06:49:45;;;;;;;36.17;8.77;;;1.40;86.50;;;;;;5029097;28;20089;-73
2024/01/12 06:52:11;;;;;;;35.97;8.03;;;1.40;86.50;;;;;;5012484;28;20037;-73
2024/01/12 06:54:37;;;;;;;36.33;7.43;;;1.50;86.50;;;;;;5014086;28;22135;-73
2024/01/12 06:57:03;;;;;;;32.10;7.03;;;1.50;86.60;;;;;;5032716;28;20049;-73
2024/01/12 06:59:29;;;;;;;34.67;7.00;;;1.50;86.50;;;;;;5018840;28;20045;-74
2024/01/12 07:01:54;;;;;;;40.90;7.10;;;1.50;86.60;;;;;;5015218;28;20049;-73
2024/01/12 07:04:20;;;;;;;31.13;6.10;;;1.60;86.60;;;;;;5019609;28;20061;-74
2024/01/12 07:06:46;;;;;;;38.83;6.33;;;1.60;86.60;;;;;;5030528;28;20141;-75
2024/01/12 07:09:13;;;;;;;32.47;5.73;;;1.70;86.50;;;;;;5028836;28;20049;-73
2024/01/12 07:11:42;;;;;;;30.63;5.90;;;1.70;86.50;;;;;;5029131;28;20041;-73
2024/01/12 07:14:08;;;;;;;28.93;5.60;;;1.70;86.50;;;;;;5030539;28;20052;-74
2024/01/12 07:16:35;;;;;;;27.53;4.93;;;1.70;86.40;;;;;;5027194;28;20843;-73
2024/01/12 07:19:01;;;;;;;32.10;5.30;;;1.70;86.40;;;;;;5033437;28;20041;-74
2024/01/12 07:21:26;;;;;;;23.17;5.07;;;1.70;86.40;;;;;;5011560;28;20051;-73
2024/01/12 07:23:52;;;;;;;22.77;4.40;;;1.80;86.40;;;;;;5030031;28;20041;-73
2024/01/12 07:26:18;;;;;;;27.37;4.80;;;1.80;86.30;;;;;;5036079;28;20520;-74
2024/01/12 07:28:44;;;;;;;24.77;3.90;;;1.80;86.30;;;;;;5040207;28;20132;-74
2024/01/12 07:31:10;;;;;;;32.90;5.00;;;1.90;86.30;;;;;;5010002;28;20077;-73
2024/01/12 07:33:36;;;;;;;29.93;4.40;;;1.90;86.30;;;;;;5040103;28;20092;-73
2024/01/12 07:36:01;;;;;;;23.47;3.80;;;2.00;86.30;;;;;;5043037;28;20045;-74
2024/01/12 07:38:27;;;;;;;29.27;3.97;;;2.10;86.30;;;;;;5036175;28;20156;-73
2024/01/12 07:40:53;;;;;;;28.00;4.37;;;2.10;86.10;;;;;;5039020;28;20129;-73
2024/01/12 07:43:19;;;;;;;25.67;3.90;;;2.10;86.10;;;;;;5045554;28;20660;-73
2024/01/12 07:45:45;;;;;;;28.70;4.10;;;2.20;86.00;;;;;;5042500;28;20131;-73
2024/01/12 07:48:10;;;;;;;23.67;3.77;;;2.10;86.00;;;;;;5022141;28;20110;-74
2024/01/12 07:50:36;;;;;;;30.90;3.93;;;2.20;85.90;;;;;;5038478;28;20091;-74
2024/01/12 07:53:02;;;;;;;24.17;4.00;;;2.20;85.90;;;;;;5036701;28;20547;-73
2024/01/12 07:55:28;;;;;;;22.33;3.80;;;2.20;85.80;;;;;;5035575;28;20041;-73
2024/01/12 07:57:54;;;;;;;23.93;4.00;;;2.20;85.80;;;;;;5013572;28;20088;-74
2024/01/12 08:00:20;;;;;;;24.43;4.77;;;2.20;85.70;;;;;;5009947;28;20093;-75
2024/01/12 08:02:45;;;;;;;28.23;4.67;;;2.30;85.70;;;;;;5030101;28;20049;-74
2024/01/12 08:05:11;;;;;;;23.73;4.30;;;2.40;85.50;;;;;;5032659;28;20140;-73
2024/01/12 08:07:37;;;;;;;27.23;4.17;;;2.50;85.40;;;;;;5031209;28;20643;-74
2024/01/12 08:10:04;;;;;;;33.37;4.73;;;2.50;85.30;;;;;;5014842;28;20129;-75
2024/01/12 08:12:30;;;;;;;24.63;4.43;;;2.50;85.20;;;;;;5030435;28;20508;-75
2024/01/12 08:14:55;;;;;;;27.03;4.63;;;2.50;85.20;;;;;;5032036;28;20051;-73
2024/01/12 08:17:21;;;;;;;27.50;4.80;;;2.50;85.20;;;;;;5029657;28;20069;-74
2024/01/12 08:19:47;;;;;;;24.97;4.83;;;2.50;85.20;;;;;;5027352;28;20055;-74
2024/01/12 08:22:13;;;;;;;27.67;5.30;;;2.50;85.20;;;;;;5011977;28;20052;-73
2024/01/12 08:24:40;;;;;;;26.27;4.90;;;2.50;85.20;;;;;;5012771;28;20064;-75
2024/01/12 08:27:05;;;;;;;25.33;4.97;;;2.50;85.30;;;;;;5010174;28;20479;-73
2024/01/12 08:29:31;;;;;;;26.70;4.50;;;2.50;85.20;;;;;;5011301;28;20061;-75
2024/01/12 08:31:58;;;;;;;21.80;4.43;;;2.50;85.20;;;;;;5027689;28;20068;-74
2024/01/12 08:34:25;;;;;;;24.43;4.30;;;2.50;85.20;;;;;;5029326;28;20057;-76
2024/01/12 08:36:51;;;;;;;27.20;4.70;;;2.50;85.30;;;;;;5025792;28;21372;-74
2024/01/12 08:39:17;;;;;;;24.63;3.97;;;2.50;85.20;;;;;;5031546;28;20044;-75
2024/01/12 08:41:43;;;;;;;22.47;3.77;;;2.50;85.20;;;;;;5011156;28;20047;-76
2024/01/12 08:44:11;;;;;;;29.37;4.13;;;2.50;85.20;;;;;;5013816;28;20602;-74
2024/01/12 08:46:37;;;;;;;26.70;4.27;;;2.50;85.20;;;;;;5025789;28;20052;-74
2024/01/12 08:49:03;;;;;;;20.07;4.47;;;2.50;85.10;;;;;;5029375;28;20053;-75
2024/01/12 08:51:29;;;;;;;25.60;5.17;;;2.50;85.10;;;;;;5025166;28;20067;-76
2024/01/12 08:53:55;;;;;;;29.77;5.03;;;2.50;85.10;;;;;;5011684;28;20059;-75
2024/01/12 08:56:21;;;;;;;37.40;5.03;;;2.60;85.10;;;;;;5027945;28;20132;-75
2024/01/12 08:58:47;;;;;;;25.93;4.60;;;2.60;85.10;;;;;;5024298;28;20059;-75
2024/01/12 09:01:13;;;;;;;25.17;4.87;;;2.70;85.10;;;;;;5029553;28;20064;-74
2024/01/12 09:03:39;;;;;;;36.47;5.40;;;2.60;85.10;;;;;;5009740;28;20041;-74
2024/01/12 09:06:05;;;;;;;31.63;5.10;;;2.70;85.20;;;;;;5010046;28;20138;-74
2024/01/12 09:08:30;;;;;;;26.70;4.43;;;2.70;85.10;;;;;;5027506;28;20191;-75
2024/01/12 09:10:56;;;;;;;30.67;4.73;;;2.70;85.20;;;;;;5024897;28;20084;-74
2024/01/12 09:13:22;;;;;;;25.97;4.33;;;2.70;85.10;;;;;;5024707;28;20065;-73
2024/01/12 09:15:47;;;;;;;32.83;4.80;;;2.70;85.20;;;;;;5027141;28;20059;-73
2024/01/12 09:18:13;;;;;;;27.63;4.63;;;2.70;85.10;;;;;;5015050;28;20434;-74
2024/01/12 09:20:39;;;;;;;29.03;4.80;;;2.80;85.20;;;;;;5030047;28;20060;-76
2024/01/12 09:23:05;;;;;;;27.33;4.67;;;2.80;85.10;;;;;;5028152;28;20056;-75
2024/01/12 09:25:32;;;;;;;27.03;4.20;;;2.90;85.20;;;;;;5009330;28;20048;-74
2024/01/12 09:27:58;;;;;;;28.43;4.27;;;2.90;85.20;;;;;;5029400;28;20099;-73
2024/01/12 09:30:24;;;;;;;24.00;4.30;;;2.90;85.10;;;;;;5026621;28;20057;-77
2024/01/12 09:32:50;;;;;;;24.47;3.77;;;2.90;85.00;;;;;;5013326;28;20109;-75
2024/01/12 09:35:15;;;;;;;23.60;3.30;;;2.90;85.10;;;;;;5026958;28;20099;-75
2024/01/12 09:37:41;;;;;;;18.03;3.10;;;2.90;85.10;;;;;;5027410;28;20120;-73
2024/01/12 09:40:07;;;;;;;21.03;3.27;;;3.00;85.10;;;;;;5027993;28;20049;-75
2024/01/12 09:42:33;;;;;;;25.57;3.80;;;3.00;85.10;;;;;;5012181;28;20088;-73
2024/01/12 09:45:00;;;;;;;23.77;4.00;;;3.00;85.10;;;;;;5031555;28;20109;-75
2024/01/12 09:47:26;;;;;;;20.00;3.40;;;3.00;85.10;;;;;;5028082;28;20101;-74
2024/01/12 09:49:53;;;;;;;18.67;3.53;;;3.00;85.10;;;;;;5013901;28;20045;-73
2024/01/12 09:52:18;;;;;;;21.07;2.83;;;3.10;85.00;;;;;;5029280;28;20111;-75
2024/01/12 09:54:47;;;;;;;17.77;3.43;;;3.10;85.10;;;;;;5014205;28;20061;-73
2024/01/12 09:57:13;;;;;;;16.43;2.97;;;3.10;85.00;;;;;;5026677;28;20534;-74
2024/01/12 09:59:40;;;;;;;19.47;3.40;;;3.10;85.00;;;;;;5030520;28;20041;-74
2024/01/12 10:02:15;;;;;;;19.87;3.03;;;3.10;85.10;;;;;;5013668;28;20079;-75
2024/01/12 10:04:41;;;;;;;17.13;4.13;;;3.10;85.00;;;;;;5011136;28;20143;-75
2024/01/12 10:07:07;;;;;;;17.03;3.40;;;3.10;84.90;;;;;;5026584;28;20051;-76
2024/01/12 10:09:32;;;;;;;25.93;3.73;;;3.10;84.80;;;;;;5011782;28;20057;-74
2024/01/12 10:11:59;;;;;;;16.07;3.30;;;3.20;84.70;;;;;;5031997;28;20355;-74
2024/01/12 10:14:25;;;;;;;22.30;3.77;;;3.30;84.90;;;;;;5027917;28;20064;-73
2024/01/12 10:16:58;;;;;;;14.67;3.33;;;3.30;84.80;;;;;;5024104;28;21434;-76
2024/01/12 10:19:25;;;;;;;22.00;4.27;;;3.30;84.90;;;;;;5011239;28;20126;-74
2024/01/12 10:21:51;;;;;;;23.93;3.80;;;3.30;84.90;;;;;;5013998;28;20094;-72
2024/01/12 10:24:21;;;;;;;27.00;4.10;;;3.30;84.80;;;;;;5009731;28;20466;-70
2024/01/12 10:26:50;;;;;;;22.70;4.00;;;3.30;84.90;;;;;;5020667;28;20054;-71
2024/01/12 10:29:16;;;;;;;21.80;3.37;;;3.30;84.80;;;;;;5017449;28;20073;-71
2024/01/12 10:31:44;;;;;;;26.13;4.23;;;3.30;84.90;;;;;;5019619;28;20045;-73
2024/01/12 10:34:14;;;;;;;23.50;4.00;;;3.40;84.90;;;;;;5000015;28;20052;-73
2024/01/12 10:36:41;;;;;;;20.73;3.63;;;3.50;85.00;;;;;;5022561;28;20084;-74
2024/01/12 10:39:08;;;;;;;24.50;3.87;;;3.50;85.00;;;;;;4997313;28;20531;-73
2024/01/12 10:41:34;;;;;;;20.33;3.43;;;3.50;85.00;;;;;;5014766;28;20056;-74
2024/01/12 10:44:04;;;;;;;26.30;4.13;;;3.50;85.00;;;;;;5022405;28;20520;-74
2024/01/12 10:46:47;;;;;;;24.47;4.27;;;3.50;85.00;;;;;;5009759;28;20511;-74
2024/01/12 10:49:28;;;;;;;29.57;4.27;;;3.60;85.00;;;;;;5010766;28;20045;-73
2024/01/12 10:52:27;;;;;;;18.92;3.72;;;3.60;85.00;;;;;;5028258;28;20119;-73
2024/01/12 10:55:04;;;;;;;16.53;3.37;;;3.70;85.00;;;;;;5027141;28;20057;-73
2024/01/12 10:57:32;;;;;;;21.83;4.10;;;3.70;85.00;;;;;;5008881;28;20049;-76
2024/01/12 10:59:59;;;;;;;22.87;4.37;;;3.80;84.80;;;;;;5007542;28;20049;-74
2024/01/12 11:02:26;;;;;;;26.37;4.60;;;3.80;84.80;;;;;;4992888;28;20057;-76
2024/01/12 11:04:53;;;;;;;26.20;3.90;;;3.80;84.80;;;;;;5027044;28;20389;-75
2024/01/12 11:07:18;;;;;;;33.23;3.90;;;3.80;84.70;;;;;;5010395;28;20049;-73
2024/01/12 11:09:44;;;;;;;27.40;4.37;;;3.90;84.70;;;;;;5030837;28;20041;-74
2024/01/12 11:12:32;;;;;;;23.83;3.67;;;3.90;84.60;;;;;;5030542;28;20044;-74
2024/01/12 11:14:58;;;;;;;29.30;4.50;;;3.80;84.70;;;;;;5030102;28;20264;-74
2024/01/12 11:17:32;;;;;;;29.03;4.87;;;3.80;84.80;;;;;;5014541;28;20053;-76
2024/01/12 11:20:11;;;;;;;25.93;4.60;;;3.90;85.00;;;;;;5029596;28;20045;-73
2024/01/12 11:22:43;;;;;;;36.37;4.80;;;3.90;85.00;;;;;;5013852;28;20532;-73
2024/01/12 11:25:11;;;;;;;32.40;3.90;;;3.90;85.00;;;;;;5012550;28;20048;-76
2024/01/12 11:27:39;;;;;;;34.70;4.67;;;3.90;85.00;;;;;;5014847;28;20041;-74
2024/01/12 11:30:06;;;;;;;35.03;4.90;;;3.90;85.10;;;;;;5011970;28;20298;-73
2024/01/12 11:32:32;;;;;;;37.37;4.47;;;4.00;85.00;;;;;;5014317;28;20044;-74
2024/01/12 11:35:13;;;;;;;27.50;4.17;;;4.00;85.00;;;;;;5012917;28;20041;-74
2024/01/12 11:37:43;;;;;;;29.10;4.47;;;4.00;85.00;;;;;;5029798;28;20049;-73
2024/01/12 11:40:13;;;;;;;23.47;4.53;;;4.00;85.00;;;;;;5013205;28;20067;-74
2024/01/12 11:42:40;;;;;;;30.67;5.07;;;4.00;85.00;;;;;;5011823;28;20120;-73
2024/01/12 11:45:11;;;;;;;27.80;4.50;;;4.10;84.80;;;;;;5011760;28;20381;-75
2024/01/12 11:47:41;;;;;;;21.50;3.65;;;4.10;84.80;;;;;;5013841;28;20496;-75
2024/01/12 11:50:09;;;;;;;22.73;3.83;;;4.10;84.40;;;;;;5011802;28;20574;-74
2024/01/12 11:52:38;;;;;;;34.40;5.23;;;4.10;84.30;;;;;;5030961;28;20535;-74
2024/01/12 11:55:08;;;;;;;31.93;5.20;;;4.20;84.20;;;;;;5030064;28;20049;-74
2024/01/12 11:57:35;;;;;;;32.97;5.60;;;4.20;84.10;;;;;;5012041;28;20056;-76
2024/01/12 12:00:03;;;;;;;34.77;5.40;;;4.20;84.20;;;;;;5030276;28;20060;-74
2024/01/12 12:02:28;;;;;;;29.13;5.17;;;4.20;84.30;;;;;;5030736;28;20090;-76
2024/01/12 12:04:54;;;;;;;30.20;5.27;;;4.20;84.20;;;;;;5030740;28;20060;-76
2024/01/12 12:07:27;;;;;;;33.97;5.57;;;4.20;84.10;;;;;;5013298;28;20049;-75
2024/01/12 12:09:56;;;;;;;33.03;5.47;;;4.10;84.30;;;;;;5011504;28;20068;-76
2024/01/12 12:12:22;;;;;;;34.30;5.63;;;4.10;84.20;;;;;;5011414;28;20147;-75
2024/01/12 12:15:01;;;;;;;29.53;5.27;;;4.10;84.10;;;;;;5030766;28;20065;-73
2024/01/12 12:17:27;;;;;;;28.40;5.23;;;4.10;84.20;;;;;;4996298;28;20106;-76
2024/01/12 12:19:54;;;;;;;27.67;5.20;;;4.10;84.10;;;;;;4993981;28;20084;-76
2024/01/12 12:22:20;;;;;;;32.53;5.73;;;4.00;84.10;;;;;;5015595;28;20053;-75
2024/01/12 12:24:46;;;;;;;35.13;5.70;;;4.00;84.20;;;;;;5023309;28;20053;-75
2024/01/12 12:27:13;;;;;;;26.20;4.73;;;4.00;84.30;;;;;;5013485;28;20056;-73
2024/01/12 12:29:40;;;;;;;30.07;5.53;;;4.00;84.40;;;;;;5006907;28;20479;-74
2024/01/12 12:32:11;;;;;;;39.43;5.47;;;4.00;84.60;;;;;;5006852;28;20049;-76
2024/01/12 12:34:39;;;;;;;19.13;3.67;;;4.10;84.60;;;;;;5010698;28;20045;-73
2024/01/12 12:37:08;;;;;;;33.03;5.03;;;4.10;84.60;;;;;;4984520;28;20051;-76
2024/01/12 12:39:36;;;;;;;37.77;5.03;;;4.10;84.60;;;;;;5011759;28;20424;-76
2024/01/12 12:42:05;;;;;;;33.47;5.40;;;4.10;84.50;;;;;;4993471;28;20439;-75